sensor_id;sensor_type;location;lat;lon;timestamp;pressure;altitude;pressure_sealevel;temperature;humidity
55271;BME280;41132;47.162;9.470;2023-03-19T00:01:40;96228.44;;;9.39;100.00
55271;BME280;41132;47.162;9.470;2023-03-19T00:04:05;96207.66;;;9.38;99.90
55271;BME280;41132;47.162;9.470;2023-03-19T00:06:31;96232.34;;;9.61;100.00
55271;BME280;41132;47.162;9.470;2023-03-19T00:08:56;96232.13;;;9.55;100.00
55271;BME280;41132;47.162;9.470;2023-03-19T00:11:21;96234.81;;;9.63;100.00
55271;BME280;41132;47.162;9.470;2023-03-19T00:13:47;96235.81;;;9.44;100.00
55271;BME280;41132;47.162;9.470;2023-03-19T00:16:12;96237.53;;;9.27;100.00
55271;BME280;41132;47.162;9.470;2023-03-19T00:18:37;96237.50;;;9.45;100.00
55271;BME280;41132;47.162;9.470;2023-03-19T00:21:03;96219.34;;;9.52;99.63
55271;BME280;41132;47.162;9.470;2023-03-19T00:23:29;96234.81;;;9.71;98.56
55271;BME280;41132;47.162;9.470;2023-03-19T00:25:55;96232.84;;;9.65;100.00
55271;BME280;41132;47.162;9.470;2023-03-19T00:28:20;96236.16;;;9.75;97.54
55271;BME280;41132;47.162;9.470;2023-03-19T00:30:46;96252.44;;;9.87;97.06
55271;BME280;41132;47.162;9.470;2023-03-19T00:33:11;96242.09;;;9.51;100.00
55271;BME280;41132;47.162;9.470;2023-03-19T00:35:38;96246.78;;;9.39;100.00
55271;BME280;41132;47.162;9.470;2023-03-19T00:38:04;96255.09;;;9.35;100.00
55271;BME280;41132;47.162;9.470;2023-03-19T00:40:29;96250.31;;;9.30;100.00
55271;BME280;41132;47.162;9.470;2023-03-19T00:42:55;96253.00;;;9.38;100.00
55271;BME280;41132;47.162;9.470;2023-03-19T00:45:20;96248.41;;;9.67;98.69
55271;BME280;41132;47.162;9.470;2023-03-19T00:47:45;96258.63;;;9.78;97.73
55271;BME280;41132;47.162;9.470;2023-03-19T00:50:11;96254.38;;;9.77;97.18
55271;BME280;41132;47.162;9.470;2023-03-19T00:52:36;96256.59;;;9.64;100.00
55271;BME280;41132;47.162;9.470;2023-03-19T00:55:02;96246.25;;;9.62;99.81
55271;BME280;41132;47.162;9.470;2023-03-19T00:57:27;96253.09;;;9.55;100.00
55271;BME280;41132;47.162;9.470;2023-03-19T00:59:52;96256.97;;;9.43;100.00
55271;BME280;41132;47.162;9.470;2023-03-19T01:02:18;96259.38;;;9.36;100.00
55271;BME280;41132;47.162;9.470;2023-03-19T01:04:43;96257.00;;;9.51;100.00
55271;BME280;41132;47.162;9.470;2023-03-19T01:07:09;96253.53;;;9.76;98.01
55271;BME280;41132;47.162;9.470;2023-03-19T01:09:34;96258.94;;;9.49;100.00
55271;BME280;41132;47.162;9.470;2023-03-19T01:12:00;96258.22;;;9.65;99.56
55271;BME280;41132;47.162;9.470;2023-03-19T01:14:29;96257.50;;;9.54;99.66
55271;BME280;41132;47.162;9.470;2023-03-19T01:16:55;96263.22;;;9.50;100.00
55271;BME280;41132;47.162;9.470;2023-03-19T01:19:20;96270.25;;;9.49;100.00
55271;BME280;41132;47.162;9.470;2023-03-19T01:21:46;96273.03;;;9.48;100.00
55271;BME280;41132;47.162;9.470;2023-03-19T01:24:14;96270.81;;;9.61;100.00
55271;BME280;41132;47.162;9.470;2023-03-19T01:26:39;96279.84;;;9.67;100.00
55271;BME280;41132;47.162;9.470;2023-03-19T01:29:05;96270.19;;;9.41;100.00
55271;BME280;41132;47.162;9.470;2023-03-19T01:31:31;96277.66;;;9.54;100.00
55271;BME280;41132;47.162;9.470;2023-03-19T01:33:56;96285.34;;;9.55;100.00
55271;BME280;41132;47.162;9.470;2023-03-19T01:36:21;96264.50;;;9.46;100.00
55271;BME280;41132;47.162;9.470;2023-03-19T01:38:47;96281.56;;;9.50;100.00
55271;BME280;41132;47.162;9.470;2023-03-19T01:41:13;96278.22;;;9.66;97.73
55271;BME280;41132;47.162;9.470;2023-03-19T01:43:39;96288.56;;;9.75;98.49
55271;BME280;41132;47.162;9.470;2023-03-19T01:46:07;96293.50;;;9.78;95.16
55271;BME280;41132;47.162;9.470;2023-03-19T01:48:40;96267.88;;;9.64;96.07
55271;BME280;41132;47.162;9.470;2023-03-19T01:51:09;96296.28;;;9.77;98.07
55271;BME280;41132;47.162;9.470;2023-03-19T01:53:36;96287.09;;;9.73;98.69
55271;BME280;41132;47.162;9.470;2023-03-19T01:56:09;96292.19;;;9.74;97.62
55271;BME280;41132;47.162;9.470;2023-03-19T01:58:38;96275.53;;;9.57;96.43
55271;BME280;41132;47.162;9.470;2023-03-19T02:01:04;96287.81;;;9.57;99.33
55271;BME280;41132;47.162;9.470;2023-03-19T02:03:31;96287.47;;;9.52;100.00
55271;BME280;41132;47.162;9.470;2023-03-19T02:05:58;96275.19;;;9.52;98.19
55271;BME280;41132;47.162;9.470;2023-03-19T02:08:24;96281.34;;;9.43;100.00
55271;BME280;41132;47.162;9.470;2023-03-19T02:10:51;96300.09;;;9.56;98.96
55271;BME280;41132;47.162;9.470;2023-03-19T02:13:18;96287.94;;;9.47;100.00
55271;BME280;41132;47.162;9.470;2023-03-19T02:15:43;96299.91;;;9.50;100.00
55271;BME280;41132;47.162;9.470;2023-03-19T02:18:09;96298.69;;;9.44;100.00
55271;BME280;41132;47.162;9.470;2023-03-19T02:28:15;96305.94;;;9.50;100.00
55271;BME280;41132;47.162;9.470;2023-03-19T02:30:43;96306.06;;;9.40;100.00
55271;BME280;41132;47.162;9.470;2023-03-19T02:33:13;96302.03;;;9.28;100.00
55271;BME280;41132;47.162;9.470;2023-03-19T02:35:41;96303.56;;;9.39;100.00
55271;BME280;41132;47.162;9.470;2023-03-19T02:38:06;96300.03;;;9.48;100.00
55271;BME280;41132;47.162;9.470;2023-03-19T02:40:38;96313.06;;;9.40;100.00
55271;BME280;41132;47.162;9.470;2023-03-19T02:43:04;96312.59;;;9.45;100.00
55271;BME280;41132;47.162;9.470;2023-03-19T02:45:30;96287.41;;;9.44;98.50
55271;BME280;41132;47.162;9.470;2023-03-19T02:47:56;96317.41;;;9.75;97.92
55271;BME280;41132;47.162;9.470;2023-03-19T02:50:21;96293.22;;;9.55;98.11
55271;BME280;41132;47.162;9.470;2023-03-19T02:52:47;96315.19;;;9.62;98.41
55271;BME280;41132;47.162;9.470;2023-03-19T02:55:12;96305.28;;;9.48;100.00
55271;BME280;41132;47.162;9.470;2023-03-19T02:57:38;96310.63;;;9.38;100.00
55271;BME280;41132;47.162;9.470;2023-03-19T03:00:06;96303.06;;;9.35;100.00
55271;BME280;41132;47.162;9.470;2023-03-19T03:02:33;96298.91;;;9.51;95.72
55271;BME280;41132;47.162;9.470;2023-03-19T03:04:58;96311.41;;;9.57;96.85
55271;BME280;41132;47.162;9.470;2023-03-19T03:07:23;96297.16;;;9.59;93.19
55271;BME280;41132;47.162;9.470;2023-03-19T03:09:49;96324.03;;;9.88;91.55
55271;BME280;41132;47.162;9.470;2023-03-19T03:12:15;96327.94;;;9.83;92.54
55271;BME280;41132;47.162;9.470;2023-03-19T03:14:40;96310.47;;;9.66;95.27
55271;BME280;41132;47.162;9.470;2023-03-19T03:17:06;96328.09;;;9.56;99.61
55271;BME280;41132;47.162;9.470;2023-03-19T03:19:33;96338.28;;;9.59;98.72
55271;BME280;41132;47.162;9.470;2023-03-19T03:21:58;96343.72;;;9.66;99.25
55271;BME280;41132;47.162;9.470;2023-03-19T03:24:25;96352.41;;;9.66;100.00
55271;BME280;41132;47.162;9.470;2023-03-19T03:26:51;96345.06;;;9.70;99.53
55271;BME280;41132;47.162;9.470;2023-03-19T03:29:16;96357.97;;;9.63;100.00
55271;BME280;41132;47.162;9.470;2023-03-19T03:31:42;96360.13;;;9.68;99.70
55271;BME280;41132;47.162;9.470;2023-03-19T03:34:08;96353.75;;;9.70;97.61
55271;BME280;41132;47.162;9.470;2023-03-19T03:36:33;96363.91;;;9.73;98.74
55271;BME280;41132;47.162;9.470;2023-03-19T03:38:59;96359.75;;;9.45;100.00
55271;BME280;41132;47.162;9.470;2023-03-19T03:41:24;96364.19;;;9.26;100.00
55271;BME280;41132;47.162;9.470;2023-03-19T03:43:50;96366.09;;;9.34;100.00
55271;BME280;41132;47.162;9.470;2023-03-19T03:46:15;96372.72;;;9.46;100.00
55271;BME280;41132;47.162;9.470;2023-03-19T03:48:40;96373.84;;;9.44;100.00
55271;BME280;41132;47.162;9.470;2023-03-19T03:51:06;96362.47;;;9.17;100.00
55271;BME280;41132;47.162;9.470;2023-03-19T03:53:32;96366.44;;;9.21;100.00
55271;BME280;41132;47.162;9.470;2023-03-19T03:55:57;96358.09;;;9.17;100.00
55271;BME280;41132;47.162;9.470;2023-03-19T03:58:22;96363.69;;;9.05;100.00
55271;BME280;41132;47.162;9.470;2023-03-19T04:00:48;96359.22;;;8.97;100.00
55271;BME280;41132;47.162;9.470;2023-03-19T04:03:13;96367.03;;;9.15;100.00
55271;BME280;41132;47.162;9.470;2023-03-19T04:05:39;96366.81;;;9.26;100.00
55271;BME280;41132;47.162;9.470;2023-03-19T04:08:05;96371.09;;;9.45;100.00
55271;BME280;41132;47.162;9.470;2023-03-19T04:10:31;96369.13;;;9.47;100.00
55271;BME280;41132;47.162;9.470;2023-03-19T04:12:57;96379.47;;;9.31;100.00
55271;BME280;41132;47.162;9.470;2023-03-19T04:15:23;96380.59;;;9.28;100.00
55271;BME280;41132;47.162;9.470;2023-03-19T04:17:49;96383.75;;;9.32;100.00
55271;BME280;41132;47.162;9.470;2023-03-19T04:20:14;96377.16;;;9.28;100.00
55271;BME280;41132;47.162;9.470;2023-03-19T04:22:42;96382.97;;;9.22;100.00
55271;BME280;41132;47.162;9.470;2023-03-19T04:25:08;96379.41;;;9.23;100.00
55271;BME280;41132;47.162;9.470;2023-03-19T04:27:33;96387.72;;;9.18;100.00
55271;BME280;41132;47.162;9.470;2023-03-19T04:29:59;96389.25;;;9.29;100.00
55271;BME280;41132;47.162;9.470;2023-03-19T04:32:25;96389.47;;;9.35;100.00
55271;BME280;41132;47.162;9.470;2023-03-19T04:34:50;96400.03;;;9.44;100.00
55271;BME280;41132;47.162;9.470;2023-03-19T04:37:15;96393.53;;;9.48;100.00
55271;BME280;41132;47.162;9.470;2023-03-19T04:39:41;96396.81;;;9.50;100.00
55271;BME280;41132;47.162;9.470;2023-03-19T04:42:06;96402.13;;;9.58;100.00
55271;BME280;41132;47.162;9.470;2023-03-19T04:44:32;96396.81;;;9.50;100.00
55271;BME280;41132;47.162;9.470;2023-03-19T04:46:57;96397.44;;;9.44;100.00
55271;BME280;41132;47.162;9.470;2023-03-19T04:49:23;96411.91;;;9.56;100.00
55271;BME280;41132;47.162;9.470;2023-03-19T04:51:49;96396.06;;;9.57;100.00
55271;BME280;41132;47.162;9.470;2023-03-19T04:54:15;96406.63;;;9.66;100.00
55271;BME280;41132;47.162;9.470;2023-03-19T04:56:40;96413.34;;;9.68;99.83
55271;BME280;41132;47.162;9.470;2023-03-19T04:59:06;96408.78;;;9.70;99.08
55271;BME280;41132;47.162;9.470;2023-03-19T05:01:31;96406.78;;;9.46;100.00
55271;BME280;41132;47.162;9.470;2023-03-19T05:03:57;96402.81;;;9.42;100.00
55271;BME280;41132;47.162;9.470;2023-03-19T05:06:22;96414.50;;;9.48;100.00
55271;BME280;41132;47.162;9.470;2023-03-19T05:08:48;96392.63;;;9.21;100.00
55271;BME280;41132;47.162;9.470;2023-03-19T05:11:13;96408.44;;;9.47;100.00
55271;BME280;41132;47.162;9.470;2023-03-19T05:13:39;96412.22;;;9.53;100.00
55271;BME280;41132;47.162;9.470;2023-03-19T05:16:04;96416.34;;;9.55;100.00
55271;BME280;41132;47.162;9.470;2023-03-19T05:18:30;96421.38;;;9.49;100.00
55271;BME280;41132;47.162;9.470;2023-03-19T05:20:55;96414.84;;;9.35;100.00
55271;BME280;41132;47.162;9.470;2023-03-19T05:23:21;96418.16;;;9.37;100.00
55271;BME280;41132;47.162;9.470;2023-03-19T05:25:47;96421.59;;;9.37;100.00
55271;BME280;41132;47.162;9.470;2023-03-19T05:28:12;96405.97;;;9.28;100.00
55271;BME280;41132;47.162;9.470;2023-03-19T05:30:38;96430.44;;;9.36;100.00
55271;BME280;41132;47.162;9.470;2023-03-19T05:33:03;96423.53;;;9.35;100.00
55271;BME280;41132;47.162;9.470;2023-03-19T05:35:29;96431.34;;;9.45;100.00
55271;BME280;41132;47.162;9.470;2023-03-19T05:37:55;96428.94;;;9.34;100.00
55271;BME280;41132;47.162;9.470;2023-03-19T05:40:21;96433.28;;;9.25;100.00
55271;BME280;41132;47.162;9.470;2023-03-19T05:42:48;96416.44;;;9.28;100.00
55271;BME280;41132;47.162;9.470;2023-03-19T05:45:14;96431.25;;;9.19;100.00
55271;BME280;41132;47.162;9.470;2023-03-19T05:47:40;96434.16;;;9.16;100.00
55271;BME280;41132;47.162;9.470;2023-03-19T05:50:06;96445.59;;;9.15;100.00
55271;BME280;41132;47.162;9.470;2023-03-19T05:52:32;96444.41;;;9.09;100.00
55271;BME280;41132;47.162;9.470;2023-03-19T05:54:57;96447.03;;;9.09;100.00
55271;BME280;41132;47.162;9.470;2023-03-19T05:57:23;96441.19;;;9.15;100.00
55271;BME280;41132;47.162;9.470;2023-03-19T05:59:48;96456.25;;;9.31;100.00
55271;BME280;41132;47.162;9.470;2023-03-19T06:02:14;96451.28;;;9.28;100.00
55271;BME280;41132;47.162;9.470;2023-03-19T06:04:39;96460.72;;;9.21;100.00
55271;BME280;41132;47.162;9.470;2023-03-19T06:07:05;96461.84;;;9.18;100.00
55271;BME280;41132;47.162;9.470;2023-03-19T06:09:30;96465.66;;;9.24;100.00
55271;BME280;41132;47.162;9.470;2023-03-19T06:11:56;96461.19;;;9.34;100.00
55271;BME280;41132;47.162;9.470;2023-03-19T06:14:22;96473.69;;;9.40;100.00
55271;BME280;41132;47.162;9.470;2023-03-19T06:16:48;96467.16;;;9.45;100.00
55271;BME280;41132;47.162;9.470;2023-03-19T06:19:13;96474.75;;;9.48;100.00
55271;BME280;41132;47.162;9.470;2023-03-19T06:21:39;96468.59;;;9.39;100.00
55271;BME280;41132;47.162;9.470;2023-03-19T06:24:04;96482.22;;;9.43;100.00
55271;BME280;41132;47.162;9.470;2023-03-19T06:26:30;96482.06;;;9.44;100.00
55271;BME280;41132;47.162;9.470;2023-03-19T06:28:56;96475.41;;;9.50;100.00
55271;BME280;41132;47.162;9.470;2023-03-19T06:31:21;96475.94;;;9.53;100.00
55271;BME280;41132;47.162;9.470;2023-03-19T06:33:47;96476.81;;;9.44;100.00
55271;BME280;41132;47.162;9.470;2023-03-19T06:36:13;96470.41;;;9.56;100.00
55271;BME280;41132;47.162;9.470;2023-03-19T06:38:39;96482.22;;;9.60;100.00
55271;BME280;41132;47.162;9.470;2023-03-19T06:41:04;96485.91;;;9.50;100.00
55271;BME280;41132;47.162;9.470;2023-03-19T06:43:30;96471.53;;;9.36;100.00
55271;BME280;41132;47.162;9.470;2023-03-19T06:45:56;96476.91;;;9.34;100.00
55271;BME280;41132;47.162;9.470;2023-03-19T06:48:22;96470.25;;;9.58;100.00
55271;BME280;41132;47.162;9.470;2023-03-19T06:50:47;96487.63;;;9.77;100.00
55271;BME280;41132;47.162;9.470;2023-03-19T06:53:13;96483.28;;;9.86;100.00
55271;BME280;41132;47.162;9.470;2023-03-19T06:55:39;96492.09;;;10.02;100.00
55271;BME280;41132;47.162;9.470;2023-03-19T06:58:05;96478.19;;;10.10;100.00
55271;BME280;41132;47.162;9.470;2023-03-19T07:00:31;96490.09;;;10.22;100.00
55271;BME280;41132;47.162;9.470;2023-03-19T07:02:56;96497.75;;;10.34;100.00
55271;BME280;41132;47.162;9.470;2023-03-19T07:05:22;96488.88;;;10.35;100.00
55271;BME280;41132;47.162;9.470;2023-03-19T07:07:47;96491.41;;;10.44;100.00
55271;BME280;41132;47.162;9.470;2023-03-19T07:10:12;96494.63;;;10.56;99.08
55271;BME280;41132;47.162;9.470;2023-03-19T07:12:38;96491.13;;;10.56;99.06
55271;BME280;41132;47.162;9.470;2023-03-19T07:15:04;96493.97;;;10.62;98.65
55271;BME280;41132;47.162;9.470;2023-03-19T07:17:29;96497.50;;;10.79;95.36
55271;BME280;41132;47.162;9.470;2023-03-19T07:19:55;96504.97;;;11.00;95.02
55271;BME280;41132;47.162;9.470;2023-03-19T07:22:20;96500.75;;;11.07;93.79
55271;BME280;41132;47.162;9.470;2023-03-19T07:24:46;96505.69;;;11.11;99.20
55271;BME280;41132;47.162;9.470;2023-03-19T07:27:12;96507.94;;;11.05;94.95
55271;BME280;41132;47.162;9.470;2023-03-19T07:29:37;96504.44;;;11.39;90.87
55271;BME280;41132;47.162;9.470;2023-03-19T07:32:03;96516.00;;;11.71;88.06
55271;BME280;41132;47.162;9.470;2023-03-19T07:34:28;96515.34;;;11.61;92.53
55271;BME280;41132;47.162;9.470;2023-03-19T07:36:54;96511.31;;;11.91;90.10
55271;BME280;41132;47.162;9.470;2023-03-19T07:39:19;96507.88;;;12.15;86.10
55271;BME280;41132;47.162;9.470;2023-03-19T07:41:45;96516.25;;;12.10;87.26
55271;BME280;41132;47.162;9.470;2023-03-19T07:44:15;96516.88;;;12.12;90.43
55271;BME280;41132;47.162;9.470;2023-03-19T07:46:41;96519.16;;;12.48;83.05
55271;BME280;41132;47.162;9.470;2023-03-19T07:49:06;96522.69;;;12.88;80.24
55271;BME280;41132;47.162;9.470;2023-03-19T07:51:32;96520.16;;;13.11;79.12
55271;BME280;41132;47.162;9.470;2023-03-19T07:53:58;96501.69;;;13.20;74.99
55271;BME280;41132;47.162;9.470;2023-03-19T07:56:24;96513.75;;;13.45;73.90
55271;BME280;41132;47.162;9.470;2023-03-19T07:58:50;96505.75;;;13.62;73.59
55271;BME280;41132;47.162;9.470;2023-03-19T08:01:16;96517.63;;;13.57;71.01
55271;BME280;41132;47.162;9.470;2023-03-19T08:03:41;96516.00;;;13.17;74.98
55271;BME280;41132;47.162;9.470;2023-03-19T08:06:07;96521.38;;;13.40;71.13
55271;BME280;41132;47.162;9.470;2023-03-19T08:08:32;96507.63;;;13.13;73.34
55271;BME280;41132;47.162;9.470;2023-03-19T08:11:00;96527.88;;;12.57;80.32
55271;BME280;41132;47.162;9.470;2023-03-19T08:13:25;96513.84;;;12.81;76.12
55271;BME280;41132;47.162;9.470;2023-03-19T08:15:51;96519.88;;;12.98;71.66
55271;BME280;41132;47.162;9.470;2023-03-19T08:18:18;96513.06;;;13.12;72.25
55271;BME280;41132;47.162;9.470;2023-03-19T08:20:45;96504.03;;;13.06;75.69
55271;BME280;41132;47.162;9.470;2023-03-19T08:23:11;96511.38;;;13.58;73.70
55271;BME280;41132;47.162;9.470;2023-03-19T08:25:37;96494.94;;;13.48;74.89
55271;BME280;41132;47.162;9.470;2023-03-19T08:28:03;96510.91;;;13.78;69.03
55271;BME280;41132;47.162;9.470;2023-03-19T08:30:29;96511.44;;;13.96;61.96
55271;BME280;41132;47.162;9.470;2023-03-19T08:32:55;96519.16;;;14.06;61.70
55271;BME280;41132;47.162;9.470;2023-03-19T08:35:21;96497.91;;;13.99;61.82
55271;BME280;41132;47.162;9.470;2023-03-19T08:37:46;96520.19;;;14.20;60.92
55271;BME280;41132;47.162;9.470;2023-03-19T08:40:12;96515.56;;;14.22;63.81
55271;BME280;41132;47.162;9.470;2023-03-19T08:42:37;96516.09;;;14.32;62.94
55271;BME280;41132;47.162;9.470;2023-03-19T08:45:10;96509.63;;;14.20;65.20
55271;BME280;41132;47.162;9.470;2023-03-19T08:47:36;96512.13;;;14.36;61.85
55271;BME280;41132;47.162;9.470;2023-03-19T08:50:02;96507.13;;;14.04;66.91
55271;BME280;41132;47.162;9.470;2023-03-19T08:52:28;96512.97;;;13.68;74.65
55271;BME280;41132;47.162;9.470;2023-03-19T08:54:54;96503.31;;;13.29;66.90
55271;BME280;41132;47.162;9.470;2023-03-19T08:57:20;96515.66;;;13.28;67.32
55271;BME280;41132;47.162;9.470;2023-03-19T08:59:45;96513.53;;;13.55;64.00
55271;BME280;41132;47.162;9.470;2023-03-19T09:02:11;96509.81;;;13.95;62.61
55271;BME280;41132;47.162;9.470;2023-03-19T09:04:40;96506.13;;;14.05;65.57
55271;BME280;41132;47.162;9.470;2023-03-19T09:07:05;96512.09;;;13.98;63.62
55271;BME280;41132;47.162;9.470;2023-03-19T09:09:31;96508.81;;;13.96;61.05
55271;BME280;41132;47.162;9.470;2023-03-19T09:11:57;96509.34;;;14.15;67.09
55271;BME280;41132;47.162;9.470;2023-03-19T09:14:22;96512.50;;;14.48;61.72
55271;BME280;41132;47.162;9.470;2023-03-19T09:16:48;96508.56;;;14.67;61.87
55271;BME280;41132;47.162;9.470;2023-03-19T09:19:13;96506.09;;;14.80;60.85
55271;BME280;41132;47.162;9.470;2023-03-19T09:21:39;96494.97;;;15.00;62.21
55271;BME280;41132;47.162;9.470;2023-03-19T09:24:05;96498.09;;;14.74;61.21
55271;BME280;41132;47.162;9.470;2023-03-19T09:26:31;96504.09;;;14.68;59.25
55271;BME280;41132;47.162;9.470;2023-03-19T09:28:56;96496.34;;;14.96;58.48
55271;BME280;41132;47.162;9.470;2023-03-19T09:31:23;96490.94;;;15.34;60.25
55271;BME280;41132;47.162;9.470;2023-03-19T09:33:48;96482.31;;;15.10;56.64
55271;BME280;41132;47.162;9.470;2023-03-19T09:36:14;96495.44;;;15.03;54.84
55271;BME280;41132;47.162;9.470;2023-03-19T09:38:40;96499.81;;;15.62;52.76
55271;BME280;41132;47.162;9.470;2023-03-19T09:41:07;96496.69;;;15.95;54.99
55271;BME280;41132;47.162;9.470;2023-03-19T09:46:27;96497.88;;;15.71;57.07
55271;BME280;41132;47.162;9.470;2023-03-19T09:48:58;96487.63;;;15.47;57.24
55271;BME280;41132;47.162;9.470;2023-03-19T09:51:48;96479.47;;;15.84;56.47
55271;BME280;41132;47.162;9.470;2023-03-19T09:56:52;96478.84;;;15.10;55.67
55271;BME280;41132;47.162;9.470;2023-03-19T09:59:18;96481.13;;;14.68;52.46
55271;BME280;41132;47.162;9.470;2023-03-19T10:01:51;96474.50;;;15.38;55.46
55271;BME280;41132;47.162;9.470;2023-03-19T10:04:38;96474.69;;;15.37;55.00
55271;BME280;41132;47.162;9.470;2023-03-19T10:07:19;96480.19;;;15.35;56.99
55271;BME280;41132;47.162;9.470;2023-03-19T10:18:02;96474.94;;;16.00;52.83
55271;BME280;41132;47.162;9.470;2023-03-19T10:20:44;96474.06;;;15.93;54.19
55271;BME280;41132;47.162;9.470;2023-03-19T10:23:30;96472.25;;;15.72;52.09
55271;BME280;41132;47.162;9.470;2023-03-19T10:25:58;96467.91;;;15.49;54.12
55271;BME280;41132;47.162;9.470;2023-03-19T10:28:26;96469.47;;;16.29;55.55
55271;BME280;41132;47.162;9.470;2023-03-19T10:33:25;96461.41;;;16.73;52.43
55271;BME280;41132;47.162;9.470;2023-03-19T10:36:01;96435.97;;;17.13;49.31
55271;BME280;41132;47.162;9.470;2023-03-19T10:38:28;96443.69;;;16.73;50.01
55271;BME280;41132;47.162;9.470;2023-03-19T10:41:28;96444.47;;;17.02;48.59
55271;BME280;41132;47.162;9.470;2023-03-19T10:44:00;96437.56;;;17.14;49.94
55271;BME280;41132;47.162;9.470;2023-03-19T10:46:26;96443.16;;;16.49;49.06
55271;BME280;41132;47.162;9.470;2023-03-19T10:48:52;96443.16;;;16.49;49.28
55271;BME280;41132;47.162;9.470;2023-03-19T10:51:27;96434.75;;;16.46;49.44
55271;BME280;41132;47.162;9.470;2023-03-19T10:53:53;96438.69;;;16.00;49.55
55271;BME280;41132;47.162;9.470;2023-03-19T10:56:26;96433.69;;;16.12;49.52
55271;BME280;41132;47.162;9.470;2023-03-19T10:59:03;96432.22;;;16.31;52.31
55271;BME280;41132;47.162;9.470;2023-03-19T11:01:40;96434.72;;;16.11;53.69
55271;BME280;41132;47.162;9.470;2023-03-19T11:04:19;96424.59;;;16.49;52.45
55271;BME280;41132;47.162;9.470;2023-03-19T11:06:51;96431.16;;;15.97;52.59
55271;BME280;41132;47.162;9.470;2023-03-19T11:09:39;96430.06;;;15.92;55.89
55271;BME280;41132;47.162;9.470;2023-03-19T11:12:26;96433.63;;;15.77;53.71
55271;BME280;41132;47.162;9.470;2023-03-19T11:14:56;96420.91;;;15.88;54.54
55271;BME280;41132;47.162;9.470;2023-03-19T11:19:56;96410.44;;;15.58;54.60
55271;BME280;41132;47.162;9.470;2023-03-19T11:22:41;96409.66;;;15.42;56.07
55271;BME280;41132;47.162;9.470;2023-03-19T11:27:38;96402.81;;;15.70;54.84
55271;BME280;41132;47.162;9.470;2023-03-19T11:30:13;96400.38;;;15.53;54.15
55271;BME280;41132;47.162;9.470;2023-03-19T11:35:32;96400.13;;;15.48;54.75
55271;BME280;41132;47.162;9.470;2023-03-19T11:38:01;96400.50;;;15.23;53.40
55271;BME280;41132;47.162;9.470;2023-03-19T11:40:43;96394.50;;;15.51;52.95
55271;BME280;41132;47.162;9.470;2023-03-19T11:43:48;96395.94;;;15.54;51.70
55271;BME280;41132;47.162;9.470;2023-03-19T11:46:41;96388.44;;;15.36;53.25
55271;BME280;41132;47.162;9.470;2023-03-19T11:49:33;96387.94;;;15.47;54.38
55271;BME280;41132;47.162;9.470;2023-03-19T11:52:09;96391.56;;;15.24;51.95
55271;BME280;41132;47.162;9.470;2023-03-19T12:00:10;96379.34;;;15.23;52.29
55271;BME280;41132;47.162;9.470;2023-03-19T12:28:29;96357.28;;;15.31;54.39
55271;BME280;41132;47.162;9.470;2023-03-19T12:31:21;96352.50;;;15.20;54.82
55271;BME280;41132;47.162;9.470;2023-03-19T12:36:22;96346.69;;;15.10;53.20
55271;BME280;41132;47.162;9.470;2023-03-19T12:39:02;96350.47;;;15.22;51.68
55271;BME280;41132;47.162;9.470;2023-03-19T12:41:30;96343.41;;;15.08;54.41
55271;BME280;41132;47.162;9.470;2023-03-19T12:44:05;96344.13;;;14.80;52.99
55271;BME280;41132;47.162;9.470;2023-03-19T12:46:37;96347.53;;;14.59;53.76
55271;BME280;41132;47.162;9.470;2023-03-19T12:49:20;96352.44;;;14.62;52.56
55271;BME280;41132;47.162;9.470;2023-03-19T12:51:53;96339.53;;;14.67;54.21
55271;BME280;41132;47.162;9.470;2023-03-19T12:54:26;96332.03;;;14.71;55.98
55271;BME280;41132;47.162;9.470;2023-03-19T12:59:47;96339.41;;;14.75;54.92
55271;BME280;41132;47.162;9.470;2023-03-19T13:02:42;96340.03;;;14.77;54.20
55271;BME280;41132;47.162;9.470;2023-03-19T13:10:43;96341.41;;;14.44;55.77
55271;BME280;41132;47.162;9.470;2023-03-19T13:16:22;96359.38;;;14.63;57.22
55271;BME280;41132;47.162;9.470;2023-03-19T13:18:57;96352.69;;;14.52;62.10
55271;BME280;41132;47.162;9.470;2023-03-19T13:21:28;96361.63;;;14.36;66.11
55271;BME280;41132;47.162;9.470;2023-03-19T13:24:16;96350.25;;;14.21;63.58
55271;BME280;41132;47.162;9.470;2023-03-19T13:26:45;96364.28;;;14.22;71.42
55271;BME280;41132;47.162;9.470;2023-03-19T13:29:18;96365.09;;;14.22;72.59
55271;BME280;41132;47.162;9.470;2023-03-19T13:31:45;96360.91;;;14.28;71.47
55271;BME280;41132;47.162;9.470;2023-03-19T13:34:25;96363.09;;;14.39;66.07
55271;BME280;41132;47.162;9.470;2023-03-19T13:36:54;96359.81;;;14.37;58.70
55271;BME280;41132;47.162;9.470;2023-03-19T13:39:28;96364.28;;;14.36;57.66
55271;BME280;41132;47.162;9.470;2023-03-19T13:42:08;96357.38;;;14.35;60.16
55271;BME280;41132;47.162;9.470;2023-03-19T13:44:38;96360.91;;;14.43;61.67
55271;BME280;41132;47.162;9.470;2023-03-19T13:52:54;96350.44;;;14.49;64.01
55271;BME280;41132;47.162;9.470;2023-03-19T13:58:42;96353.91;;;14.20;71.10
55271;BME280;41132;47.162;9.470;2023-03-19T14:01:02;96355.97;;;14.10;70.18
55271;BME280;41132;47.162;9.470;2023-03-19T14:03:35;96351.44;;;14.18;74.32
55271;BME280;41132;47.162;9.470;2023-03-19T14:06:03;96356.16;;;14.23;70.08
55271;BME280;41132;47.162;9.470;2023-03-19T14:08:42;96358.16;;;14.21;70.70
55271;BME280;41132;47.162;9.470;2023-03-19T14:11:21;96350.78;;;14.16;73.44
55271;BME280;41132;47.162;9.470;2023-03-19T14:13:48;96347.81;;;14.19;75.77
55271;BME280;41132;47.162;9.470;2023-03-19T14:16:18;96347.78;;;14.05;80.05
55271;BME280;41132;47.162;9.470;2023-03-19T14:18:47;96356.06;;;14.16;78.56
55271;BME280;41132;47.162;9.470;2023-03-19T14:21:16;96347.25;;;14.09;81.50
55271;BME280;41132;47.162;9.470;2023-03-19T14:23:55;96355.97;;;14.10;83.94
55271;BME280;41132;47.162;9.470;2023-03-19T14:26:23;96345.63;;;14.08;78.85
55271;BME280;41132;47.162;9.470;2023-03-19T14:29:05;96343.25;;;14.13;75.72
55271;BME280;41132;47.162;9.470;2023-03-19T14:34:05;96353.06;;;14.05;76.18
55271;BME280;41132;47.162;9.470;2023-03-19T14:36:34;96351.88;;;13.92;74.09